Mobile, AL

12:59 AM CDT on May 01, 2017 (GMT -0500)
Mobile Downtown | | Change Station
Active Advisory: Wind Advisory

Elev 23 ft 30.63 °N, 88.07 °W | Updated 6 minutes ago

Overcast
Overcast
77 °F
Feels Like 77 °F
N
16
Wind Variable Wind from South
Gusts 32 mph

Today
High -- | Low -- °F
--% Chance of Precip.
Yesterday
High -- | Low -- °F
Precip. -- in
Pressure 29.88 in
Visibility 10.0 miles
Clouds Few 1500 ft
Mostly Cloudy 2800 ft
Overcast 6500 ft
Dew Point 75 °F
Humidity 94%
Rainfall 0.01 in
Snow Depth Not available.
6:08 AM 7:30 PM
Waxing Crescent, 30% visible
METAR KBFM 010553Z AUTO 18014G28KT 10SM FEW015 BKN028 OVC065 25/24 A2988 RMK AO2 PK WND 16032/0508 LTG DSNT ALQDS RAE13B21E36 SLP117 P0001 60328 T02500239 10256 20222 402720206 55006
Pressure 29.88 in
Visibility 10.0 miles
Clouds Few 1500 ft
Mostly Cloudy 2800 ft
Overcast 6500 ft
Dew Point 75 °F
Humidity 94%
Rainfall 0.01 in
Snow Depth Not available.
6:08 AM 7:30 PM
Waxing Crescent, 30% visible
METAR KBFM 010553Z AUTO 18014G28KT 10SM FEW015 BKN028 OVC065 25/24 A2988 RMK AO2 PK WND 16032/0508 LTG DSNT ALQDS RAE13B21E36 SLP117 P0001 60328 T02500239 10256 20222 402720206 55006

Get Your Daily Forecast Email!

Thanks for signing up!

Be on the lookout for a verification email in your inbox.

You'll start receiving severe weather alerts in your inbox..

×

10-Day Weather Forecast

Almanac

Astronomy

May. 01, 2017 Rise Set
Actual Time
Civil Twilight
Nautical Twilight
Astronomical Twilight
Moon
Length of Visible Light
Length of Day
Tomorrow will be .
, % of the Moon is Illuminated

Today's Extremes

State Highs State Lows

Community

WunderPhotos

WunderBlog® & News

Nearby

Air Quality

  Air Quality AQ Index Pollutant
Not available.

Snow Depth

Station Depth Elevation

Earthquake Activity

City Distance Mag. Time & Date
Minimum magnitude displayed is 2.5.

Coastal Water Temperatures

Place Temperature

Stations

Nearby Weather Stations

Station Location Temp. Windchill Dew Point Humidity Wind Precip. Elev Updated Type
                   

Watches & Warnings

Wind Advisory
Issued: 12:05 AM CDT May. 1, 2017 – National Weather Service

... Wind Advisory now in effect until 4 am CDT early this
morning...

* timing... until 4 am CDT this morning.

* Winds... southeast to south winds 25 to 35 mph with frequent
gusts near 40 mph and should slowly decrease through 4 am CDT.

* Impacts... the gusty winds could result in the Downing of large
limbs, as well as blowing around loose lawn objects. Travel
will also be difficult at times especially if traveling on
bridges and overpasses as well as east to west oriented
roadways.

Precautionary/preparedness actions...

A Wind Advisory means that winds of 25 to 39 mph or frequent
gusts of 30 to 39 mph are expected. Winds this strong can make
driving difficult, especially for high profile vehicles. Use
extra caution.